Aeroporto :







RITROVATECI SU...

 
LOGIN :

Iscrizione | Disclaimer

   EN    FR    IT 

 









Sommario :    VFR   VFR Marginale   IFR   IFR Intensivo   IFR Molto Intensivo
Visibilità : 
Base nubi : 
>= 8 km
>= 3000ft
5 / 8 km
1000 / 3000 ft
1500m / 5 km
500 / 1000 ft
800 / 1500m
200 / 500 ft
< 800m
< 200 ft
Simboli :   Temporali  Nebbia  Neve Forte  Precipitazioni Forti  Vento > 20 kt






- Altitudine del aeroporto : 84 ft
- Codice IATA : YJT


CYJT - Stephenville

ULTIMO METAR :
  • 270000Z VRB02KT 15SM BKN012 11/10 A3008 RMK SC7 SLP187

METARs OBSOLETI :
  • 262300Z 29003KT 15SM BKN011 10/09 A3007 RMK SC7 SLP186
  • 262200Z 28008KT 15SM BKN011 11/09 A3007 RMK SC7 SLP185

TAF TAF CYJT
Valido dal 27 a 00 ore il 28 a 00 ore UTC


262330Z 2700/2724 VRB03KT P6SM FEW006 BKN012
TEMPO 2700/2705 6SM -SHRA BR BKN006 OVC015
FM270500 VRB03KT 1SM -DZ BR OVC005
TEMPO 2705/2711 3SM BR OVC010
FM271200 VRB03KT 5SM BR OVC010
FM271400 30010KT P6SM SCT015 BKN025
FM272000 30008KT P6SM BKN120 RMK NXT FCST BY 270600Z
FIR CZQX / America del Nord



MetMap, La meteo Aeronautica in un colpo d'occhio ! - Copyright ORBIFLY Dicembre 2007 - Disclaimer

ORBIFLY MET'MAP TEAM :

Programmazione e sviluppo : Alexandra Zaïnal
Concezione : Baudouin d'Aumeries
Aiuto per la programmazione : Marc-Olivier Méhu
Supporto tecnico e logistico : Manuel Goepfert
Aiuto per la traduzione : Arnaldo La Scala

Contatto : metmap@orbifly.com




FONTI E CREDITI :

   NOAA